sensor_id;sensor_type;location;lat;lon;timestamp;pressure;altitude;pressure_sealevel;temperature;humidity
64158;BME280;50449;51.528;5.076;2024-02-26T00:01:58;99695.53;;;9.34;60.53
64158;BME280;50449;51.528;5.076;2024-02-26T00:04:23;99699.03;;;9.35;60.40
64158;BME280;50449;51.528;5.076;2024-02-26T00:06:49;99703.38;;;9.36;60.48
64158;BME280;50449;51.528;5.076;2024-02-26T00:09:16;99708.75;;;9.36;60.79
64158;BME280;50449;51.528;5.076;2024-02-26T00:11:42;99707.13;;;9.35;60.44
64158;BME280;50449;51.528;5.076;2024-02-26T00:14:07;99701.44;;;9.31;59.95
64158;BME280;50449;51.528;5.076;2024-02-26T00:16:32;99697.16;;;9.30;60.27
64158;BME280;50449;51.528;5.076;2024-02-26T00:18:58;99698.19;;;9.29;59.97
64158;BME280;50449;51.528;5.076;2024-02-26T00:21:23;99696.59;;;9.28;59.95
64158;BME280;50449;51.528;5.076;2024-02-26T00:23:49;99690.09;;;9.24;59.44
64158;BME280;50449;51.528;5.076;2024-02-26T00:26:16;99691.97;;;9.23;60.03
64158;BME280;50449;51.528;5.076;2024-02-26T00:28:46;99698.44;;;9.22;60.41
64158;BME280;50449;51.528;5.076;2024-02-26T00:31:12;99694.91;;;9.22;59.91
64158;BME280;50449;51.528;5.076;2024-02-26T00:33:37;99690.59;;;9.21;59.74
64158;BME280;50449;51.528;5.076;2024-02-26T00:36:03;99690.59;;;9.21;59.87
64158;BME280;50449;51.528;5.076;2024-02-26T00:38:29;99698.69;;;9.21;59.83
64158;BME280;50449;51.528;5.076;2024-02-26T00:40:54;99682.78;;;9.19;59.78
64158;BME280;50449;51.528;5.076;2024-02-26T00:43:20;99691.69;;;9.20;59.75
64158;BME280;50449;51.528;5.076;2024-02-26T00:45:45;99682.78;;;9.19;60.32
64158;BME280;50449;51.528;5.076;2024-02-26T00:48:12;99688.16;;;9.19;59.76
64158;BME280;50449;51.528;5.076;2024-02-26T00:50:39;99691.94;;;9.18;59.91
64158;BME280;50449;51.528;5.076;2024-02-26T00:53:05;99693.53;;;9.19;59.66
64158;BME280;50449;51.528;5.076;2024-02-26T00:55:30;99694.06;;;9.16;59.85
64158;BME280;50449;51.528;5.076;2024-02-26T00:57:56;99689.50;;;9.17;59.54
64158;BME280;50449;51.528;5.076;2024-02-26T01:00:21;99687.06;;;9.15;59.92
64158;BME280;50449;51.528;5.076;2024-02-26T01:02:47;99692.47;;;9.15;59.89
64158;BME280;50449;51.528;5.076;2024-02-26T01:05:13;99687.06;;;9.15;59.72
64158;BME280;50449;51.528;5.076;2024-02-26T01:07:39;99697.84;;;9.15;60.51
64158;BME280;50449;51.528;5.076;2024-02-26T01:10:05;99687.88;;;9.16;60.16
64158;BME280;50449;51.528;5.076;2024-02-26T01:12:32;99696.22;;;9.14;60.14
64158;BME280;50449;51.528;5.076;2024-02-26T01:14:57;99705.38;;;9.13;60.00
64158;BME280;50449;51.528;5.076;2024-02-26T01:17:23;99699.19;;;9.13;60.61
64158;BME280;50449;51.528;5.076;2024-02-26T01:19:48;99701.88;;;9.13;60.34
64158;BME280;50449;51.528;5.076;2024-02-26T01:22:14;99703.72;;;9.12;60.05
64158;BME280;50449;51.528;5.076;2024-02-26T01:24:39;99702.94;;;9.12;60.22
64158;BME280;50449;51.528;5.076;2024-02-26T01:27:05;99708.06;;;9.13;60.63
64158;BME280;50449;51.528;5.076;2024-02-26T01:29:31;99705.38;;;9.13;60.25
64158;BME280;50449;51.528;5.076;2024-02-26T01:31:56;99704.56;;;9.13;60.21
64158;BME280;50449;51.528;5.076;2024-02-26T01:34:22;99710.75;;;9.13;60.47
64158;BME280;50449;51.528;5.076;2024-02-26T01:36:47;99709.97;;;9.13;60.34
64158;BME280;50449;51.528;5.076;2024-02-26T01:39:13;99710.75;;;9.13;60.54
64158;BME280;50449;51.528;5.076;2024-02-26T01:41:39;99712.38;;;9.14;60.63
64158;BME280;50449;51.528;5.076;2024-02-26T01:44:05;99723.16;;;9.14;60.65
64158;BME280;50449;51.528;5.076;2024-02-26T01:46:33;99723.16;;;9.14;60.67
64158;BME280;50449;51.528;5.076;2024-02-26T01:48:59;99715.63;;;9.16;60.73
64158;BME280;50449;51.528;5.076;2024-02-26T01:51:26;99719.41;;;9.15;61.29
64158;BME280;50449;51.528;5.076;2024-02-26T01:53:52;99721.00;;;9.16;60.88
64158;BME280;50449;51.528;5.076;2024-02-26T01:56:19;99712.13;;;9.16;60.94
64158;BME280;50449;51.528;5.076;2024-02-26T01:58:46;99717.50;;;9.16;61.10
64158;BME280;50449;51.528;5.076;2024-02-26T02:01:12;99728.03;;;9.17;61.33
64158;BME280;50449;51.528;5.076;2024-02-26T02:03:38;99720.78;;;9.18;61.20
64158;BME280;50449;51.528;5.076;2024-02-26T02:06:04;99727.78;;;9.19;60.98
64158;BME280;50449;51.528;5.076;2024-02-26T02:08:29;99732.34;;;9.18;61.16
64158;BME280;50449;51.528;5.076;2024-02-26T02:10:55;99718.88;;;9.18;61.33
64158;BME280;50449;51.528;5.076;2024-02-26T02:13:21;99727.22;;;9.17;61.32
64158;BME280;50449;51.528;5.076;2024-02-26T02:15:47;99728.28;;;9.16;61.31
64158;BME280;50449;51.528;5.076;2024-02-26T02:18:12;99731.78;;;9.16;61.36
64158;BME280;50449;51.528;5.076;2024-02-26T02:20:37;99723.72;;;9.16;61.51
64158;BME280;50449;51.528;5.076;2024-02-26T02:23:03;99725.59;;;9.16;62.00
64158;BME280;50449;51.528;5.076;2024-02-26T02:25:29;99731.22;;;9.14;61.55
64158;BME280;50449;51.528;5.076;2024-02-26T02:27:55;99731.50;;;9.13;61.48
64158;BME280;50449;51.528;5.076;2024-02-26T02:30:24;99732.84;;;9.10;61.46
64158;BME280;50449;51.528;5.076;2024-02-26T02:32:50;99739.03;;;9.10;61.71
64158;BME280;50449;51.528;5.076;2024-02-26T02:35:16;99740.63;;;9.12;61.58
64158;BME280;50449;51.528;5.076;2024-02-26T02:37:42;99748.16;;;9.09;61.82
64158;BME280;50449;51.528;5.076;2024-02-26T02:40:07;99745.22;;;9.11;62.03
64158;BME280;50449;51.528;5.076;2024-02-26T02:42:33;99751.41;;;9.12;62.30
64158;BME280;50449;51.528;5.076;2024-02-26T02:44:58;99751.19;;;9.13;62.07
64158;BME280;50449;51.528;5.076;2024-02-26T02:47:23;99750.91;;;9.15;62.27
64158;BME280;50449;51.528;5.076;2024-02-26T02:49:49;99751.97;;;9.14;62.32
64158;BME280;50449;51.528;5.076;2024-02-26T02:52:14;99749.28;;;9.14;62.31
64158;BME280;50449;51.528;5.076;2024-02-26T02:54:40;99755.47;;;9.14;62.55
64158;BME280;50449;51.528;5.076;2024-02-26T02:57:07;99749.28;;;9.14;63.10
64158;BME280;50449;51.528;5.076;2024-02-26T02:59:32;99749.28;;;9.14;62.87
64158;BME280;50449;51.528;5.076;2024-02-26T03:01:58;99748.47;;;9.13;62.43
64158;BME280;50449;51.528;5.076;2024-02-26T03:04:23;99763.84;;;9.13;62.69
64158;BME280;50449;51.528;5.076;2024-02-26T03:06:49;99756.00;;;9.11;62.74
64158;BME280;50449;51.528;5.076;2024-02-26T03:09:14;99760.59;;;9.10;62.86
64158;BME280;50449;51.528;5.076;2024-02-26T03:11:39;99757.09;;;9.10;63.01
64158;BME280;50449;51.528;5.076;2024-02-26T03:14:05;99759.22;;;9.08;62.94
64158;BME280;50449;51.528;5.076;2024-02-26T03:16:31;99754.34;;;9.05;62.99
64158;BME280;50449;51.528;5.076;2024-02-26T03:18:57;99751.91;;;9.03;62.89
64158;BME280;50449;51.528;5.076;2024-02-26T03:21:24;99748.66;;;9.01;63.08
64158;BME280;50449;51.528;5.076;2024-02-26T03:23:50;99753.22;;;9.01;63.88
64158;BME280;50449;51.528;5.076;2024-02-26T03:26:15;99748.66;;;9.01;63.65
64158;BME280;50449;51.528;5.076;2024-02-26T03:28:41;99754.31;;;9.00;64.20
64158;BME280;50449;51.528;5.076;2024-02-26T03:31:06;99748.66;;;9.01;64.06
64158;BME280;50449;51.528;5.076;2024-02-26T03:33:31;99753.78;;;9.03;63.82
64158;BME280;50449;51.528;5.076;2024-02-26T03:35:57;99756.47;;;9.03;64.20
64158;BME280;50449;51.528;5.076;2024-02-26T03:38:22;99751.91;;;9.03;64.71
64158;BME280;50449;51.528;5.076;2024-02-26T03:40:48;99759.97;;;9.03;64.10
64158;BME280;50449;51.528;5.076;2024-02-26T03:43:13;99754.03;;;9.01;64.74
64158;BME280;50449;51.528;5.076;2024-02-26T03:45:39;99765.63;;;9.02;64.58
64158;BME280;50449;51.528;5.076;2024-02-26T03:48:04;99757.53;;;9.02;65.65
64158;BME280;50449;51.528;5.076;2024-02-26T03:50:30;99758.59;;;9.01;64.54
64158;BME280;50449;51.528;5.076;2024-02-26T03:52:55;99758.59;;;9.01;64.39
64158;BME280;50449;51.528;5.076;2024-02-26T03:55:22;99755.09;;;9.00;64.53
64158;BME280;50449;51.528;5.076;2024-02-26T03:57:51;99758.84;;;8.99;64.32
64158;BME280;50449;51.528;5.076;2024-02-26T04:00:16;99753.47;;;8.99;64.26
64158;BME280;50449;51.528;5.076;2024-02-26T04:02:42;99764.50;;;8.98;64.10
64158;BME280;50449;51.528;5.076;2024-02-26T04:05:11;99762.06;;;8.96;65.01
64158;BME280;50449;51.528;5.076;2024-02-26T04:07:36;99763.97;;;8.96;65.10
64158;BME280;50449;51.528;5.076;2024-02-26T04:10:02;99762.59;;;8.93;64.57
64158;BME280;50449;51.528;5.076;2024-02-26T04:12:30;99759.88;;;8.93;64.73
64158;BME280;50449;51.528;5.076;2024-02-26T04:14:55;99760.69;;;8.94;64.85
64158;BME280;50449;51.528;5.076;2024-02-26T04:17:21;99762.59;;;8.93;64.52
64158;BME280;50449;51.528;5.076;2024-02-26T04:19:46;99763.66;;;8.92;64.67
64158;BME280;50449;51.528;5.076;2024-02-26T04:22:11;99766.59;;;8.91;64.47
64158;BME280;50449;51.528;5.076;2024-02-26T04:24:37;99769.53;;;8.89;64.64
64158;BME280;50449;51.528;5.076;2024-02-26T04:27:02;99769.53;;;8.89;64.87
64158;BME280;50449;51.528;5.076;2024-02-26T04:29:28;99772.22;;;8.89;64.63
64158;BME280;50449;51.528;5.076;2024-02-26T04:31:53;99767.94;;;8.88;64.68
64158;BME280;50449;51.528;5.076;2024-02-26T04:34:19;99778.69;;;8.88;64.97
64158;BME280;50449;51.528;5.076;2024-02-26T04:36:44;99769.00;;;8.87;65.29
64158;BME280;50449;51.528;5.076;2024-02-26T04:39:09;99772.22;;;8.89;65.89
64158;BME280;50449;51.528;5.076;2024-02-26T04:41:35;99781.38;;;8.88;65.23
64158;BME280;50449;51.528;5.076;2024-02-26T04:44:01;99783.53;;;8.86;65.19
64158;BME280;50449;51.528;5.076;2024-02-26T04:46:27;99785.41;;;8.85;65.19
64158;BME280;50449;51.528;5.076;2024-02-26T04:48:53;99788.09;;;8.85;65.17
64158;BME280;50449;51.528;5.076;2024-02-26T04:51:19;99788.09;;;8.85;65.41
64158;BME280;50449;51.528;5.076;2024-02-26T04:53:44;99790.00;;;8.85;65.50
64158;BME280;50449;51.528;5.076;2024-02-26T04:56:10;99783.78;;;8.84;65.76
64158;BME280;50449;51.528;5.076;2024-02-26T04:58:35;99794.56;;;8.84;65.68
64158;BME280;50449;51.528;5.076;2024-02-26T05:01:01;99802.88;;;8.83;64.94
64158;BME280;50449;51.528;5.076;2024-02-26T05:03:26;99800.44;;;8.81;65.57
64158;BME280;50449;51.528;5.076;2024-02-26T05:05:52;99799.06;;;8.79;65.22
64158;BME280;50449;51.528;5.076;2024-02-26T05:08:17;99808.47;;;8.76;65.37
64158;BME280;50449;51.528;5.076;2024-02-26T05:10:45;99804.16;;;8.75;65.34
64158;BME280;50449;51.528;5.076;2024-02-26T05:13:10;99802.28;;;8.76;65.37
64158;BME280;50449;51.528;5.076;2024-02-26T05:15:36;99801.19;;;8.77;65.35
64158;BME280;50449;51.528;5.076;2024-02-26T05:18:02;99795.81;;;8.77;65.28
64158;BME280;50449;51.528;5.076;2024-02-26T05:20:28;99796.88;;;8.76;65.41
64158;BME280;50449;51.528;5.076;2024-02-26T05:22:53;99797.13;;;8.74;65.39
64158;BME280;50449;51.528;5.076;2024-02-26T05:25:19;99803.34;;;8.75;65.50
64158;BME280;50449;51.528;5.076;2024-02-26T05:27:44;99807.09;;;8.74;65.22
64158;BME280;50449;51.528;5.076;2024-02-26T05:30:11;99809.78;;;8.74;65.36
64158;BME280;50449;51.528;5.076;2024-02-26T05:32:36;99816.81;;;8.75;65.30
64158;BME280;50449;51.528;5.076;2024-02-26T05:35:02;99810.59;;;8.74;65.25
64158;BME280;50449;51.528;5.076;2024-02-26T05:37:29;99811.66;;;8.73;65.63
64158;BME280;50449;51.528;5.076;2024-02-26T05:39:54;99812.47;;;8.74;65.71
64158;BME280;50449;51.528;5.076;2024-02-26T05:42:20;99813.00;;;8.71;65.38
64158;BME280;50449;51.528;5.076;2024-02-26T05:44:45;99821.31;;;8.69;65.30
64158;BME280;50449;51.528;5.076;2024-02-26T05:47:11;99827.75;;;8.68;65.39
64158;BME280;50449;51.528;5.076;2024-02-26T05:49:37;99828.00;;;8.66;65.19
64158;BME280;50449;51.528;5.076;2024-02-26T05:52:02;99821.00;;;8.65;65.34
64158;BME280;50449;51.528;5.076;2024-02-26T05:54:28;99837.16;;;8.65;65.54
64158;BME280;50449;51.528;5.076;2024-02-26T05:56:53;99840.66;;;8.66;65.26
64158;BME280;50449;51.528;5.076;2024-02-26T05:59:18;99848.16;;;8.64;65.57
64158;BME280;50449;51.528;5.076;2024-02-26T06:01:44;99850.88;;;8.64;65.57
64158;BME280;50449;51.528;5.076;2024-02-26T06:04:09;99852.75;;;8.63;65.32
64158;BME280;50449;51.528;5.076;2024-02-26T06:06:34;99855.94;;;8.60;65.36
64158;BME280;50449;51.528;5.076;2024-02-26T06:09:00;99854.34;;;8.59;65.40
64158;BME280;50449;51.528;5.076;2024-02-26T06:11:25;99854.56;;;8.58;65.70
64158;BME280;50449;51.528;5.076;2024-02-26T06:13:51;99868.84;;;8.58;65.36
64158;BME280;50449;51.528;5.076;2024-02-26T06:16:16;99874.22;;;8.58;66.04
64158;BME280;50449;51.528;5.076;2024-02-26T06:18:41;99876.34;;;8.56;65.98
64158;BME280;50449;51.528;5.076;2024-02-26T06:21:10;99884.19;;;8.58;65.75
64158;BME280;50449;51.528;5.076;2024-02-26T06:23:36;99888.75;;;8.57;65.74
64158;BME280;50449;51.528;5.076;2024-02-26T06:26:01;99886.31;;;8.56;65.60
64158;BME280;50449;51.528;5.076;2024-02-26T06:28:26;99883.88;;;8.54;66.12
64158;BME280;50449;51.528;5.076;2024-02-26T06:30:55;99899.19;;;8.54;66.02
64158;BME280;50449;51.528;5.076;2024-02-26T06:33:21;99900.28;;;8.53;65.96
64158;BME280;50449;51.528;5.076;2024-02-26T06:35:46;99901.34;;;8.52;66.00
64158;BME280;50449;51.528;5.076;2024-02-26T06:38:12;99908.59;;;8.51;66.00
64158;BME280;50449;51.528;5.076;2024-02-26T06:40:39;99911.28;;;8.51;66.26
64158;BME280;50449;51.528;5.076;2024-02-26T06:43:04;99913.16;;;8.51;65.89
64158;BME280;50449;51.528;5.076;2024-02-26T06:45:29;99910.47;;;8.51;66.38
64158;BME280;50449;51.528;5.076;2024-02-26T06:47:55;99905.31;;;8.49;65.97
64158;BME280;50449;51.528;5.076;2024-02-26T06:50:21;99912.34;;;8.50;65.96
64158;BME280;50449;51.528;5.076;2024-02-26T06:52:47;99913.16;;;8.51;66.06
64158;BME280;50449;51.528;5.076;2024-02-26T06:55:12;99913.41;;;8.49;65.87
64158;BME280;50449;51.528;5.076;2024-02-26T06:57:38;99915.28;;;8.49;66.04
64158;BME280;50449;51.528;5.076;2024-02-26T07:00:04;99928.50;;;8.50;65.82
64158;BME280;50449;51.528;5.076;2024-02-26T07:02:30;99920.66;;;8.49;65.78
64158;BME280;50449;51.528;5.076;2024-02-26T07:04:56;99930.63;;;8.48;66.02
64158;BME280;50449;51.528;5.076;2024-02-26T07:07:23;99931.69;;;8.47;65.67
64158;BME280;50449;51.528;5.076;2024-02-26T07:09:49;99936.50;;;8.45;65.77
64158;BME280;50449;51.528;5.076;2024-02-26T07:12:15;99942.69;;;8.45;65.86
64158;BME280;50449;51.528;5.076;2024-02-26T07:14:41;99943.50;;;8.46;66.46
64158;BME280;50449;51.528;5.076;2024-02-26T07:17:07;99947.84;;;8.47;66.20
64158;BME280;50449;51.528;5.076;2024-02-26T07:19:33;99951.06;;;8.49;66.05
64158;BME280;50449;51.528;5.076;2024-02-26T07:21:59;99953.78;;;8.49;65.99
64158;BME280;50449;51.528;5.076;2024-02-26T07:24:26;99951.34;;;8.48;65.87
64158;BME280;50449;51.528;5.076;2024-02-26T07:26:52;99966.69;;;8.47;66.12
64158;BME280;50449;51.528;5.076;2024-02-26T07:29:19;99955.34;;;8.45;65.95
64158;BME280;50449;51.528;5.076;2024-02-26T07:31:45;99968.00;;;8.44;66.25
64158;BME280;50449;51.528;5.076;2024-02-26T07:34:10;99966.09;;;8.45;66.40
64158;BME280;50449;51.528;5.076;2024-02-26T07:36:36;99968.00;;;8.44;66.10
64158;BME280;50449;51.528;5.076;2024-02-26T07:39:01;99973.38;;;8.44;65.84
64158;BME280;50449;51.528;5.076;2024-02-26T07:41:26;99981.44;;;8.44;66.55
64158;BME280;50449;51.528;5.076;2024-02-26T07:43:52;99982.50;;;8.43;66.07
64158;BME280;50449;51.528;5.076;2024-02-26T07:46:17;99984.59;;;8.41;66.15
64158;BME280;50449;51.528;5.076;2024-02-26T07:48:43;99978.41;;;8.41;66.02
64158;BME280;50449;51.528;5.076;2024-02-26T07:51:09;99989.19;;;8.41;66.13
64158;BME280;50449;51.528;5.076;2024-02-26T07:53:34;99988.38;;;8.40;65.91
64158;BME280;50449;51.528;5.076;2024-02-26T07:55:59;99997.53;;;8.39;65.93
64158;BME280;50449;51.528;5.076;2024-02-26T07:58:25;99997.97;;;8.36;65.86
64158;BME280;50449;51.528;5.076;2024-02-26T08:00:50;100006.31;;;8.35;65.88
64158;BME280;50449;51.528;5.076;2024-02-26T08:03:16;100004.66;;;8.34;66.77
64158;BME280;50449;51.528;5.076;2024-02-26T08:05:42;100003.84;;;8.33;66.12
64158;BME280;50449;51.528;5.076;2024-02-26T08:08:08;100018.94;;;8.34;66.21
64158;BME280;50449;51.528;5.076;2024-02-26T08:10:34;100009.00;;;8.35;66.08
64158;BME280;50449;51.528;5.076;2024-02-26T08:12:59;100023.25;;;8.35;66.10
64158;BME280;50449;51.528;5.076;2024-02-26T08:15:31;100029.22;;;8.37;66.14
64158;BME280;50449;51.528;5.076;2024-02-26T08:17:57;100032.94;;;8.36;66.04
64158;BME280;50449;51.528;5.076;2024-02-26T08:20:23;100039.41;;;8.35;66.27
64158;BME280;50449;51.528;5.076;2024-02-26T08:22:48;100038.59;;;8.35;66.45
64158;BME280;50449;51.528;5.076;2024-02-26T08:25:13;100045.84;;;8.34;66.22
64158;BME280;50449;51.528;5.076;2024-02-26T08:27:41;100039.91;;;8.32;66.21
64158;BME280;50449;51.528;5.076;2024-02-26T08:30:07;100058.72;;;8.32;66.16
64158;BME280;50449;51.528;5.076;2024-02-26T08:32:32;100063.31;;;8.32;66.47
64158;BME280;50449;51.528;5.076;2024-02-26T08:34:58;100057.91;;;8.32;66.58
64158;BME280;50449;51.528;5.076;2024-02-26T08:37:23;100069.22;;;8.34;66.29
64158;BME280;50449;51.528;5.076;2024-02-26T08:39:49;100069.22;;;8.34;66.10
64158;BME280;50449;51.528;5.076;2024-02-26T08:42:14;100072.19;;;8.32;66.14
64158;BME280;50449;51.528;5.076;2024-02-26T08:44:39;100072.19;;;8.32;66.30
64158;BME280;50449;51.528;5.076;2024-02-26T08:47:05;100077.31;;;8.34;66.22
64158;BME280;50449;51.528;5.076;2024-02-26T08:49:30;100080.84;;;8.34;66.28
64158;BME280;50449;51.528;5.076;2024-02-26T08:51:56;100081.88;;;8.33;66.58
64158;BME280;50449;51.528;5.076;2024-02-26T08:54:22;100090.53;;;8.35;66.36
64158;BME280;50449;51.528;5.076;2024-02-26T08:56:47;100087.03;;;8.35;66.40
64158;BME280;50449;51.528;5.076;2024-02-26T08:59:12;100092.41;;;8.35;66.27
64158;BME280;50449;51.528;5.076;2024-02-26T09:01:38;100094.03;;;8.36;66.16
64158;BME280;50449;51.528;5.076;2024-02-26T09:04:04;100097.28;;;8.38;66.70
64158;BME280;50449;51.528;5.076;2024-02-26T09:06:29;100097.28;;;8.38;66.43
64158;BME280;50449;51.528;5.076;2024-02-26T09:08:55;100102.69;;;8.38;66.56
64158;BME280;50449;51.528;5.076;2024-02-26T09:11:21;100110.75;;;8.38;66.49
64158;BME280;50449;51.528;5.076;2024-02-26T09:13:46;100111.56;;;8.38;66.31
64158;BME280;50449;51.528;5.076;2024-02-26T09:16:11;100120.72;;;8.37;66.27
64158;BME280;50449;51.528;5.076;2024-02-26T09:18:37;100116.13;;;8.38;66.24
64158;BME280;50449;51.528;5.076;2024-02-26T09:21:06;100121.53;;;8.38;66.46
64158;BME280;50449;51.528;5.076;2024-02-26T09:23:31;100131.22;;;8.39;66.13
64158;BME280;50449;51.528;5.076;2024-02-26T09:25:57;100135.59;;;8.40;66.22
64158;BME280;50449;51.528;5.076;2024-02-26T09:28:23;100139.28;;;8.39;66.26
64158;BME280;50449;51.528;5.076;2024-02-26T09:30:48;100141.97;;;8.39;66.33
64158;BME280;50449;51.528;5.076;2024-02-26T09:33:15;100141.97;;;8.39;66.38
64158;BME280;50449;51.528;5.076;2024-02-26T09:35:41;100144.13;;;8.37;66.46
64158;BME280;50449;51.528;5.076;2024-02-26T09:38:06;100147.63;;;8.37;66.41
64158;BME280;50449;51.528;5.076;2024-02-26T09:40:32;100151.59;;;8.35;66.59
64158;BME280;50449;51.528;5.076;2024-02-26T09:42:59;100151.59;;;8.35;66.65
64158;BME280;50449;51.528;5.076;2024-02-26T09:45:26;100156.19;;;8.34;66.59
64158;BME280;50449;51.528;5.076;2024-02-26T09:47:55;100156.19;;;8.34;66.42
64158;BME280;50449;51.528;5.076;2024-02-26T09:50:21;100146.22;;;8.35;66.34
64158;BME280;50449;51.528;5.076;2024-02-26T09:52:48;100159.41;;;8.36;66.41
64158;BME280;50449;51.528;5.076;2024-02-26T09:55:14;100157.56;;;8.37;66.51
64158;BME280;50449;51.528;5.076;2024-02-26T09:57:47;100169.16;;;8.37;66.17
64158;BME280;50449;51.528;5.076;2024-02-26T10:00:17;100183.91;;;8.35;66.55
64158;BME280;50449;51.528;5.076;2024-02-26T10:02:45;100177.13;;;8.32;66.63
64158;BME280;50449;51.528;5.076;2024-02-26T10:05:12;100186.00;;;8.33;66.77
64158;BME280;50449;51.528;5.076;2024-02-26T10:07:39;100199.47;;;8.33;67.24
64158;BME280;50449;51.528;5.076;2024-02-26T10:10:05;100198.41;;;8.34;66.94
64158;BME280;50449;51.528;5.076;2024-02-26T10:12:31;100202.97;;;8.33;67.59
64158;BME280;50449;51.528;5.076;2024-02-26T10:14:57;100210.00;;;8.34;66.98
64158;BME280;50449;51.528;5.076;2024-02-26T10:17:23;100207.31;;;8.34;67.08
64158;BME280;50449;51.528;5.076;2024-02-26T10:19:48;100207.53;;;8.33;67.04
64158;BME280;50449;51.528;5.076;2024-02-26T10:22:16;100216.69;;;8.32;67.14
64158;BME280;50449;51.528;5.076;2024-02-26T10:24:41;100212.34;;;8.31;66.83
64158;BME280;50449;51.528;5.076;2024-02-26T10:27:08;100219.38;;;8.32;66.74
64158;BME280;50449;51.528;5.076;2024-02-26T10:29:34;100220.19;;;8.32;66.89
64158;BME280;50449;51.528;5.076;2024-02-26T10:32:00;100243.59;;;8.32;66.73
64158;BME280;50449;51.528;5.076;2024-02-26T10:34:26;100234.69;;;8.31;66.55
64158;BME280;50449;51.528;5.076;2024-02-26T10:36:51;100241.72;;;8.32;66.89
64158;BME280;50449;51.528;5.076;2024-02-26T10:39:17;100252.47;;;8.32;66.87
64158;BME280;50449;51.528;5.076;2024-02-26T10:41:44;100252.47;;;8.32;66.94
64158;BME280;50449;51.528;5.076;2024-02-26T10:44:11;100260.56;;;8.32;67.02
64158;BME280;50449;51.528;5.076;2024-02-26T10:46:40;100263.25;;;8.32;66.84
64158;BME280;50449;51.528;5.076;2024-02-26T10:49:13;100267.56;;;8.33;66.95
64158;BME280;50449;51.528;5.076;2024-02-26T10:51:43;100263.25;;;8.32;66.89
64158;BME280;50449;51.528;5.076;2024-02-26T10:54:12;100268.84;;;8.31;66.74
64158;BME280;50449;51.528;5.076;2024-02-26T10:56:41;100276.34;;;8.29;67.79
64158;BME280;50449;51.528;5.076;2024-02-26T10:59:09;100277.41;;;8.28;67.55
64158;BME280;50449;51.528;5.076;2024-02-26T11:01:35;100282.56;;;8.29;67.42
64158;BME280;50449;51.528;5.076;2024-02-26T11:04:03;100282.06;;;8.32;67.38
64158;BME280;50449;51.528;5.076;2024-02-26T11:06:29;100292.59;;;8.34;67.37
64158;BME280;50449;51.528;5.076;2024-02-26T11:08:55;100290.72;;;8.34;67.50
64158;BME280;50449;51.528;5.076;2024-02-26T11:11:21;100297.75;;;8.35;67.41
64158;BME280;50449;51.528;5.076;2024-02-26T11:13:48;100296.66;;;8.36;67.01
64158;BME280;50449;51.528;5.076;2024-02-26T11:16:19;100288.59;;;8.36;67.26
64158;BME280;50449;51.528;5.076;2024-02-26T11:18:46;100303.13;;;8.35;67.34
64158;BME280;50449;51.528;5.076;2024-02-26T11:21:15;100299.84;;;8.33;67.63
64158;BME280;50449;51.528;5.076;2024-02-26T11:23:41;100301.72;;;8.33;67.53
64158;BME280;50449;51.528;5.076;2024-02-26T11:26:09;100294.47;;;8.33;67.20
64158;BME280;50449;51.528;5.076;2024-02-26T11:28:36;100305.00;;;8.35;67.19
64158;BME280;50449;51.528;5.076;2024-02-26T11:31:03;100304.19;;;8.34;67.83
64158;BME280;50449;51.528;5.076;2024-02-26T11:33:30;100299.84;;;8.33;67.55
64158;BME280;50449;51.528;5.076;2024-02-26T11:35:55;100302.53;;;8.33;67.21
64158;BME280;50449;51.528;5.076;2024-02-26T11:38:23;100298.22;;;8.32;67.30
64158;BME280;50449;51.528;5.076;2024-02-26T11:40:50;100310.03;;;8.31;67.06
64158;BME280;50449;51.528;5.076;2024-02-26T11:43:15;100302.22;;;8.30;66.95
64158;BME280;50449;51.528;5.076;2024-02-26T11:48:14;100306.78;;;8.29;67.74
64158;BME280;50449;51.528;5.076;2024-02-26T11:50:55;100311.91;;;8.31;67.41
64158;BME280;50449;51.528;5.076;2024-02-26T11:53:26;100310.28;;;8.30;67.19
64158;BME280;50449;51.528;5.076;2024-02-26T11:58:40;100305.72;;;8.30;67.47
64158;BME280;50449;51.528;5.076;2024-02-26T12:01:06;100306.53;;;8.31;67.14
64158;BME280;50449;51.528;5.076;2024-02-26T12:03:51;100315.66;;;8.30;67.40
64158;BME280;50449;51.528;5.076;2024-02-26T12:06:19;100322.94;;;8.29;67.24
64158;BME280;50449;51.528;5.076;2024-02-26T12:08:44;100315.88;;;8.28;67.19
64158;BME280;50449;51.528;5.076;2024-02-26T12:11:15;100330.41;;;8.27;67.49
64158;BME280;50449;51.528;5.076;2024-02-26T12:13:41;100345.75;;;8.27;67.28
64158;BME280;50449;51.528;5.076;2024-02-26T12:16:08;100336.03;;;8.26;67.57
64158;BME280;50449;51.528;5.076;2024-02-26T12:18:34;100343.06;;;8.27;67.34
64158;BME280;50449;51.528;5.076;2024-02-26T12:21:03;100342.78;;;8.28;67.27
64158;BME280;50449;51.528;5.076;2024-02-26T12:23:29;100352.53;;;8.29;67.32
64158;BME280;50449;51.528;5.076;2024-02-26T12:25:59;100353.81;;;8.27;67.48
64158;BME280;50449;51.528;5.076;2024-02-26T12:28:28;100363.50;;;8.28;67.29
64158;BME280;50449;51.528;5.076;2024-02-26T12:30:54;100361.03;;;8.26;67.69
64158;BME280;50449;51.528;5.076;2024-02-26T12:33:20;100368.09;;;8.27;67.52
64158;BME280;50449;51.528;5.076;2024-02-26T12:35:45;100384.22;;;8.27;67.44
64158;BME280;50449;51.528;5.076;2024-02-26T12:38:14;100382.13;;;8.29;67.80
64158;BME280;50449;51.528;5.076;2024-02-26T12:40:40;100375.91;;;8.29;67.91
64158;BME280;50449;51.528;5.076;2024-02-26T12:43:05;100392.88;;;8.29;67.86
64158;BME280;50449;51.528;5.076;2024-02-26T12:45:32;100387.50;;;8.29;68.75
64158;BME280;50449;51.528;5.076;2024-02-26T12:47:59;100399.09;;;8.30;67.85
64158;BME280;50449;51.528;5.076;2024-02-26T12:50:24;100399.91;;;8.30;67.60
64158;BME280;50449;51.528;5.076;2024-02-26T12:52:51;100406.69;;;8.33;67.73
64158;BME280;50449;51.528;5.076;2024-02-26T12:55:20;100410.44;;;8.32;67.53
64158;BME280;50449;51.528;5.076;2024-02-26T12:57:46;100398.03;;;8.31;67.97
64158;BME280;50449;51.528;5.076;2024-02-26T13:00:25;100414.16;;;8.31;67.79
64158;BME280;50449;51.528;5.076;2024-02-26T13:02:51;100417.09;;;8.29;67.65
64158;BME280;50449;51.528;5.076;2024-02-26T13:05:19;100422.50;;;8.29;67.78
64158;BME280;50449;51.528;5.076;2024-02-26T13:07:45;100429.50;;;8.30;67.70